createdAt,value
2023-01-20T00:01:33.884Z,61.71
2023-01-20T00:04:35.479Z,61.63
2023-01-20T00:07:37.063Z,62.20
2023-01-20T00:10:38.563Z,61.92
2023-01-20T00:13:40.125Z,61.91
2023-01-20T00:16:41.789Z,62.00
2023-01-20T00:19:43.324Z,61.95
2023-01-20T00:22:44.920Z,62.04
2023-01-20T00:25:46.465Z,62.03
2023-01-20T00:28:49.328Z,62.04
2023-01-20T00:31:50.880Z,62.18
2023-01-20T00:34:52.372Z,61.85
2023-01-20T00:37:53.852Z,61.93
2023-01-20T00:40:55.560Z,61.83
2023-01-20T00:43:57.059Z,61.98
2023-01-20T00:46:59.159Z,61.96
2023-01-20T00:50:00.666Z,61.88
2023-01-20T00:53:02.133Z,61.92
2023-01-20T00:56:04.499Z,62.01
2023-01-20T00:59:08.272Z,62.09
2023-01-20T01:02:09.839Z,62.21
2023-01-20T01:05:11.548Z,62.21
2023-01-20T01:08:13.708Z,62.27
2023-01-20T01:11:15.329Z,62.29
2023-01-20T01:14:16.842Z,62.25
2023-01-20T01:17:18.385Z,62.08
2023-01-20T01:20:20.093Z,62.32
2023-01-20T01:23:21.801Z,62.26
2023-01-20T01:26:23.426Z,62.25
2023-01-20T01:29:25.038Z,62.24
2023-01-20T01:32:27.214Z,62.11
2023-01-20T01:35:28.710Z,62.17
2023-01-20T01:38:30.209Z,62.29
2023-01-20T01:41:31.976Z,62.26
2023-01-20T01:44:36.143Z,62.37
2023-01-20T01:47:40.030Z,62.35
2023-01-20T01:50:54.256Z,62.48
2023-01-20T01:54:02.603Z,62.44
2023-01-20T01:57:07.408Z,62.54
2023-01-20T02:00:09.642Z,62.64
2023-01-20T02:03:14.567Z,62.66
2023-01-20T02:06:17.358Z,62.75
2023-01-20T02:09:19.764Z,62.71
2023-01-20T02:12:22.665Z,62.61
2023-01-20T02:15:32.294Z,62.64
2023-01-20T02:18:57.774Z,62.73
2023-01-20T02:22:18.010Z,62.69
2023-01-20T02:25:31.543Z,62.75
2023-01-20T02:29:05.466Z,62.82
2023-01-20T02:32:26.765Z,62.77
2023-01-20T02:35:45.544Z,62.77
2023-01-20T02:39:05.435Z,62.95
2023-01-20T02:42:13.139Z,62.87
2023-01-20T02:45:17.798Z,62.93
2023-01-20T02:48:52.882Z,62.89
2023-01-20T02:52:01.894Z,63.05
2023-01-20T02:55:10.387Z,62.90
2023-01-20T02:58:39.529Z,62.86
2023-01-20T03:02:10.310Z,62.79
2023-01-20T03:05:20.719Z,63.05
2023-01-20T03:08:26.910Z,62.82
2023-01-20T03:11:31.858Z,62.96
2023-01-20T03:14:33.519Z,62.91
2023-01-20T03:17:35.326Z,62.96
2023-01-20T03:20:36.924Z,63.12
2023-01-20T03:23:42.646Z,63.05
2023-01-20T03:26:44.217Z,63.12
2023-01-20T03:29:45.712Z,63.14
2023-01-20T03:32:49.393Z,63.13
2023-01-20T03:35:52.200Z,63.22
2023-01-20T03:38:55.631Z,63.13
2023-01-20T03:42:28.831Z,63.16
2023-01-20T03:45:39.145Z,63.21
2023-01-20T03:48:49.657Z,63.09
2023-01-20T03:52:18.587Z,63.05
2023-01-20T03:55:26.557Z,62.94
2023-01-20T03:58:33.099Z,63.06
2023-01-20T04:01:37.177Z,63.01
2023-01-20T04:04:42.311Z,62.96
2023-01-20T04:07:46.000Z,63.17
2023-01-20T04:10:50.180Z,63.16
2023-01-20T04:13:51.948Z,63.14
2023-01-20T04:16:57.060Z,63.16
2023-01-20T04:20:04.357Z,63.11
2023-01-20T04:23:08.153Z,63.12
2023-01-20T04:26:09.660Z,63.13
2023-01-20T04:29:13.099Z,63.10
2023-01-20T04:32:15.165Z,63.10
2023-01-20T04:35:19.269Z,63.13
2023-01-20T04:38:20.885Z,63.14
2023-01-20T04:41:22.432Z,63.06
2023-01-20T04:44:23.902Z,63.04
2023-01-20T04:47:25.450Z,62.88
2023-01-20T04:50:27.020Z,63.12
2023-01-20T04:53:28.502Z,62.98
2023-01-20T04:56:30.052Z,63.30
2023-01-20T04:59:31.628Z,62.96
2023-01-20T05:02:33.305Z,62.87
2023-01-20T05:05:34.860Z,62.84
2023-01-20T05:08:36.466Z,62.76
2023-01-20T05:11:38.056Z,62.80
2023-01-20T05:14:39.536Z,62.87
2023-01-20T05:17:41.064Z,62.91
2023-01-20T05:20:45.771Z,62.96
2023-01-20T05:23:47.252Z,62.92
2023-01-20T05:26:48.739Z,63.21
2023-01-20T05:29:50.237Z,63.06
2023-01-20T05:32:52.203Z,62.99
2023-01-20T05:35:55.915Z,62.99
2023-01-20T05:38:57.569Z,62.94
2023-01-20T05:41:59.033Z,62.98
2023-01-20T05:45:00.513Z,62.88
2023-01-20T05:48:03.087Z,62.94
2023-01-20T05:51:04.768Z,63.00
2023-01-20T05:54:06.521Z,63.07
2023-01-20T05:57:08.162Z,63.08
2023-01-20T06:00:10.841Z,63.21
2023-01-20T06:03:12.344Z,63.30
2023-01-20T06:06:18.313Z,63.25
2023-01-20T06:09:19.895Z,63.31
2023-01-20T06:12:21.747Z,63.40
2023-01-20T06:15:25.230Z,63.53
2023-01-20T06:18:27.212Z,63.57
2023-01-20T06:21:28.767Z,63.86
2023-01-20T06:24:30.457Z,63.71
2023-01-20T06:27:31.933Z,63.52
2023-01-20T06:30:33.688Z,63.56
2023-01-20T06:33:35.435Z,63.57
2023-01-20T06:36:36.937Z,63.55
2023-01-20T06:39:38.784Z,63.67
2023-01-20T06:42:40.391Z,63.44
2023-01-20T06:45:41.924Z,63.47
2023-01-20T06:48:44.714Z,63.35
2023-01-20T06:51:47.789Z,63.30
2023-01-20T06:54:49.392Z,63.17
2023-01-20T06:57:50.852Z,63.19
2023-01-20T07:00:53.264Z,63.09
2023-01-20T07:03:55.082Z,63.04
2023-01-20T07:06:56.587Z,63.04
2023-01-20T07:09:58.072Z,63.01
2023-01-20T07:12:59.509Z,62.90
2023-01-20T07:16:01.012Z,62.97
2023-01-20T07:19:02.867Z,62.90
2023-01-20T07:22:04.316Z,62.93
2023-01-20T07:25:06.073Z,62.88
2023-01-20T07:28:07.784Z,62.98
2023-01-20T07:31:10.816Z,62.98
2023-01-20T07:34:12.312Z,63.13
2023-01-20T07:37:13.914Z,63.08
2023-01-20T07:40:15.530Z,63.10
2023-01-20T07:43:17.065Z,63.14
2023-01-20T07:46:19.781Z,63.04
2023-01-20T07:49:21.350Z,63.16
2023-01-20T07:52:22.835Z,62.98
2023-01-20T07:55:25.259Z,63.13
2023-01-20T07:58:26.894Z,62.88
2023-01-20T08:01:31.088Z,62.95
2023-01-20T08:04:33.487Z,62.95
2023-01-20T08:07:35.051Z,62.78
2023-01-20T08:10:37.698Z,62.78
2023-01-20T08:13:40.405Z,62.86
2023-01-20T08:16:42.020Z,62.85
2023-01-20T08:19:46.253Z,62.84
2023-01-20T08:22:47.739Z,62.91
2023-01-20T08:25:51.637Z,62.99
2023-01-20T08:28:53.720Z,62.91
2023-01-20T08:31:55.309Z,62.92
2023-01-20T08:34:56.868Z,62.95
2023-01-20T08:37:58.339Z,62.84
2023-01-20T08:41:00.159Z,62.76
2023-01-20T08:44:04.533Z,62.70
2023-01-20T08:47:06.214Z,62.73
2023-01-20T08:50:08.452Z,62.71
2023-01-20T08:53:09.916Z,62.66
2023-01-20T08:56:12.579Z,62.56
2023-01-20T08:59:14.059Z,62.63
2023-01-20T09:02:15.559Z,62.64
2023-01-20T09:05:22.206Z,62.49
2023-01-20T09:08:26.857Z,62.65
2023-01-20T09:11:28.454Z,62.63
2023-01-20T09:14:29.979Z,62.72
2023-01-20T09:17:31.444Z,62.80
2023-01-20T09:20:33.201Z,62.82
2023-01-20T09:23:36.630Z,62.82
2023-01-20T09:26:41.054Z,62.75
2023-01-20T09:29:42.523Z,62.75
2023-01-20T09:32:44.029Z,62.63
2023-01-20T09:35:45.521Z,62.64
2023-01-20T09:39:05.496Z,62.88
2023-01-20T09:42:54.677Z,62.39
2023-01-20T09:46:14.238Z,62.48
2023-01-20T09:49:58.415Z,62.40
2023-01-20T09:53:07.845Z,62.54
2023-01-20T09:56:14.085Z,62.50
2023-01-20T09:59:20.638Z,62.39
2023-01-20T10:02:25.212Z,62.33
2023-01-20T10:05:33.720Z,62.38
2023-01-20T10:09:04.538Z,62.51
2023-01-20T10:12:51.901Z,62.49
2023-01-20T10:15:55.897Z,62.39
2023-01-20T10:19:02.915Z,62.22
2023-01-20T10:22:08.348Z,62.48
2023-01-20T10:25:18.341Z,62.64
2023-01-20T10:28:32.137Z,62.65
2023-01-20T10:31:42.854Z,63.03
2023-01-20T10:34:51.162Z,63.24
2023-01-20T10:37:55.594Z,63.61
2023-01-20T10:41:07.959Z,63.71
2023-01-20T10:44:14.689Z,63.75
2023-01-20T10:47:34.698Z,63.79
2023-01-20T10:50:50.747Z,63.74
2023-01-20T10:54:23.311Z,63.80
2023-01-20T10:57:25.699Z,63.83
2023-01-20T11:00:31.161Z,63.74
2023-01-20T11:03:37.158Z,63.76
2023-01-20T11:06:39.100Z,63.86
2023-01-20T11:09:42.200Z,64.03
2023-01-20T11:12:47.513Z,63.99
2023-01-20T11:15:53.698Z,64.19
2023-01-20T11:19:03.824Z,64.31
2023-01-20T11:22:33.301Z,64.40
2023-01-20T11:25:34.781Z,64.65
2023-01-20T11:29:03.474Z,64.76
2023-01-20T11:32:05.191Z,64.82
2023-01-20T11:35:18.911Z,64.77
2023-01-20T11:38:25.596Z,64.80
2023-01-20T11:41:29.700Z,64.57
2023-01-20T11:44:31.164Z,64.85
2023-01-20T11:47:37.439Z,64.77
2023-01-20T11:50:50.357Z,64.43
2023-01-20T11:54:07.208Z,64.39
2023-01-20T11:57:17.153Z,64.39
2023-01-20T12:00:18.633Z,64.44
2023-01-20T12:03:42.243Z,64.40
2023-01-20T12:06:56.005Z,64.43
2023-01-20T12:10:32.443Z,64.57
2023-01-20T12:13:59.771Z,64.61
2023-01-20T12:17:14.405Z,64.79
2023-01-20T12:20:54.443Z,64.95
2023-01-20T12:24:08.715Z,64.90
2023-01-20T12:27:20.502Z,65.27
2023-01-20T12:30:30.890Z,65.36
2023-01-20T12:33:38.865Z,65.49
2023-01-20T12:36:46.549Z,65.59
2023-01-20T12:40:25.709Z,66.12
2023-01-20T12:43:45.619Z,66.27
2023-01-20T12:47:17.136Z,66.25
2023-01-20T12:50:37.001Z,66.16
2023-01-20T12:54:05.749Z,66.06
2023-01-20T12:57:45.355Z,65.93
2023-01-20T13:01:05.052Z,65.99
2023-01-20T13:04:42.150Z,65.95
2023-01-20T13:08:24.544Z,65.84
2023-01-20T13:12:01.133Z,65.97
2023-01-20T13:15:14.438Z,66.00
2023-01-20T13:18:23.869Z,66.06
2023-01-20T13:21:25.330Z,66.07
2023-01-20T13:24:29.585Z,66.17
2023-01-20T13:27:37.345Z,66.11
2023-01-20T13:30:47.798Z,65.97
2023-01-20T13:33:49.510Z,66.07
2023-01-20T13:37:10.128Z,65.93
2023-01-20T13:40:30.251Z,65.93
2023-01-20T13:43:31.688Z,65.91
2023-01-20T13:46:35.863Z,65.93
2023-01-20T13:49:46.444Z,66.01
2023-01-20T13:52:50.868Z,65.96
2023-01-20T13:55:54.831Z,65.93
2023-01-20T13:58:59.768Z,65.99
2023-01-20T14:02:17.070Z,66.07
2023-01-20T14:05:28.511Z,66.20
2023-01-20T14:08:38.907Z,66.13
2023-01-20T14:11:52.747Z,66.11
2023-01-20T14:14:54.754Z,66.28
2023-01-20T14:17:58.251Z,66.23
2023-01-20T14:21:15.763Z,66.30
2023-01-20T14:24:30.313Z,66.08
2023-01-20T14:27:35.522Z,66.25
2023-01-20T14:30:37.194Z,66.22
2023-01-20T14:33:53.451Z,66.08
2023-01-20T14:36:57.598Z,66.13
2023-01-20T14:40:11.352Z,66.06
2023-01-20T14:43:22.452Z,66.05
2023-01-20T14:46:24.977Z,66.11
2023-01-20T14:49:32.744Z,65.91
2023-01-20T14:52:34.304Z,65.78
2023-01-20T14:55:40.743Z,65.72
2023-01-20T14:58:47.395Z,65.54
2023-01-20T15:01:53.168Z,65.49
2023-01-20T15:04:55.343Z,65.46
2023-01-20T15:08:13.180Z,65.36
2023-01-20T15:11:16.318Z,65.43
2023-01-20T15:14:17.864Z,65.53
2023-01-20T15:17:20.482Z,65.57
2023-01-20T15:20:31.661Z,65.71
2023-01-20T15:23:35.562Z,65.57
2023-01-20T15:26:38.700Z,65.62
2023-01-20T15:29:40.712Z,65.61
2023-01-20T15:32:42.251Z,65.63
2023-01-20T15:35:43.818Z,65.55
2023-01-20T15:38:45.446Z,65.74
2023-01-20T15:41:48.668Z,65.80
2023-01-20T15:44:50.262Z,65.90
2023-01-20T15:47:52.732Z,66.09
2023-01-20T15:50:54.307Z,65.99
2023-01-20T15:53:55.804Z,66.08
2023-01-20T15:56:57.285Z,66.11
2023-01-20T15:59:58.761Z,61.80
2023-01-20T16:03:00.287Z,61.76
2023-01-20T16:06:01.989Z,62.81
2023-01-20T16:09:24.748Z,63.46
2023-01-20T16:12:26.218Z,63.71
2023-01-20T16:15:27.676Z,63.93
2023-01-20T16:18:30.183Z,64.15
2023-01-20T16:21:31.741Z,64.17
2023-01-20T16:24:33.207Z,64.40
2023-01-20T16:27:34.885Z,64.47
2023-01-20T16:30:36.345Z,64.51
2023-01-20T16:33:37.983Z,64.65
2023-01-20T16:36:39.578Z,65.05
2023-01-20T16:39:41.081Z,64.72
2023-01-20T16:42:42.650Z,65.05
2023-01-20T16:45:47.151Z,64.72
2023-01-20T16:48:49.146Z,64.81
2023-01-20T16:51:50.673Z,64.92
2023-01-20T16:54:52.200Z,64.98
2023-01-20T16:57:54.174Z,64.95
2023-01-20T17:00:55.669Z,64.99
2023-01-20T17:04:02.228Z,65.14
2023-01-20T17:07:03.650Z,65.12
2023-01-20T17:10:05.736Z,65.12
2023-01-20T17:13:07.250Z,65.26
2023-01-20T17:16:08.728Z,65.32
2023-01-20T17:19:10.266Z,65.20
2023-01-20T17:22:11.859Z,65.20
2023-01-20T17:25:17.954Z,65.13
2023-01-20T17:28:19.585Z,65.10
2023-01-20T17:31:21.383Z,65.02
2023-01-20T17:34:23.056Z,65.25
2023-01-20T17:37:24.589Z,65.18
2023-01-20T17:40:26.063Z,65.52
2023-01-20T17:43:38.496Z,64.99
2023-01-20T17:46:40.047Z,65.02
2023-01-20T17:49:41.749Z,64.83
2023-01-20T17:52:43.332Z,65.13
2023-01-20T17:55:44.791Z,65.05
2023-01-20T17:58:47.468Z,64.97
2023-01-20T18:01:52.296Z,65.08
2023-01-20T18:04:53.810Z,65.19
2023-01-20T18:07:55.339Z,65.13
2023-01-20T18:11:20.316Z,65.15
2023-01-20T18:14:21.940Z,65.13
2023-01-20T18:17:23.506Z,65.08
2023-01-20T18:20:25.089Z,64.81
2023-01-20T18:23:26.593Z,64.90
2023-01-20T18:26:30.541Z,64.92
2023-01-20T18:29:35.283Z,64.87
2023-01-20T18:32:36.740Z,64.60
2023-01-20T18:35:38.214Z,64.85
2023-01-20T18:38:45.597Z,64.75
2023-01-20T18:41:48.318Z,64.62
2023-01-20T18:44:49.778Z,64.61
2023-01-20T18:47:51.252Z,64.64
2023-01-20T18:50:59.645Z,64.52
2023-01-20T18:54:07.369Z,64.52
2023-01-20T18:57:09.252Z,64.87
2023-01-20T19:00:11.323Z,64.43
2023-01-20T19:03:12.866Z,64.37
2023-01-20T19:06:22.720Z,64.36
2023-01-20T19:09:24.244Z,64.32
2023-01-20T19:12:25.744Z,64.49
2023-01-20T19:15:27.337Z,64.35
2023-01-20T19:18:28.846Z,64.21
2023-01-20T19:21:32.396Z,64.28
2023-01-20T19:24:34.011Z,64.12
2023-01-20T19:27:35.540Z,64.05
2023-01-20T19:30:38.293Z,64.00
2023-01-20T19:33:40.488Z,64.03
2023-01-20T19:36:41.996Z,63.85
2023-01-20T19:39:43.490Z,63.96
2023-01-20T19:42:48.673Z,63.96
2023-01-20T19:45:50.132Z,64.07
2023-01-20T19:48:53.452Z,63.88
2023-01-20T19:51:54.941Z,63.79
2023-01-20T19:54:56.758Z,64.12
2023-01-20T19:57:58.226Z,63.73
2023-01-20T20:01:14.303Z,63.62
2023-01-20T20:04:20.304Z,63.55
2023-01-20T20:07:21.771Z,63.66
2023-01-20T20:10:23.263Z,63.59
2023-01-20T20:13:24.842Z,63.61
2023-01-20T20:16:28.759Z,63.57
2023-01-20T20:19:30.238Z,63.90
2023-01-20T20:22:31.764Z,63.53
2023-01-20T20:25:33.218Z,63.61
2023-01-20T20:28:34.675Z,63.48
2023-01-20T20:31:37.617Z,63.42
2023-01-20T20:34:39.761Z,63.58
2023-01-20T20:37:42.004Z,63.53
2023-01-20T20:40:43.477Z,63.41
2023-01-20T20:43:45.120Z,63.23
2023-01-20T20:46:46.751Z,63.33
2023-01-20T20:49:48.283Z,63.81
2023-01-20T20:52:51.003Z,63.27
2023-01-20T20:55:55.214Z,63.31
2023-01-20T20:59:02.874Z,63.38
2023-01-20T21:02:05.105Z,63.31
2023-01-20T21:05:07.587Z,63.37
2023-01-20T21:08:09.057Z,63.37
2023-01-20T21:11:12.816Z,63.34
2023-01-20T21:14:14.385Z,63.44
2023-01-20T21:17:16.257Z,63.32
2023-01-20T21:20:18.048Z,63.37
2023-01-20T21:23:19.700Z,63.41
2023-01-20T21:26:22.758Z,63.34
2023-01-20T21:29:26.116Z,63.34
2023-01-20T21:32:27.603Z,63.28
2023-01-20T21:35:29.089Z,63.25
2023-01-20T21:38:31.416Z,63.12
2023-01-20T21:41:32.873Z,63.32
2023-01-20T21:44:36.236Z,63.32
2023-01-20T21:47:37.805Z,63.32
2023-01-20T21:50:58.114Z,63.34
2023-01-20T21:53:59.597Z,62.83
2023-01-20T21:57:01.893Z,63.27
2023-01-20T22:00:06.244Z,63.30
2023-01-20T22:03:13.496Z,63.37
2023-01-20T22:06:15.007Z,63.26
2023-01-20T22:09:16.514Z,63.22
2023-01-20T22:12:18.048Z,63.66
2023-01-20T22:15:19.542Z,63.19
2023-01-20T22:18:21.007Z,63.30
2023-01-20T22:21:22.668Z,63.18
2023-01-20T22:24:24.174Z,63.18
2023-01-20T22:27:25.677Z,63.29
2023-01-20T22:30:27.391Z,63.32
2023-01-20T22:33:28.868Z,63.37
2023-01-20T22:36:30.411Z,63.26
2023-01-20T22:39:31.930Z,63.21
2023-01-20T22:42:34.035Z,63.23
2023-01-20T22:45:35.571Z,63.25
2023-01-20T22:48:37.070Z,63.19
2023-01-20T22:51:38.662Z,63.16
2023-01-20T22:54:40.139Z,63.29
2023-01-20T22:57:41.601Z,63.13
2023-01-20T23:00:43.660Z,63.22
2023-01-20T23:03:45.849Z,63.16
2023-01-20T23:06:47.317Z,63.21
2023-01-20T23:09:49.896Z,63.11
2023-01-20T23:12:51.836Z,62.99
2023-01-20T23:15:53.315Z,63.00
2023-01-20T23:18:54.798Z,62.99
2023-01-20T23:21:56.440Z,62.86
2023-01-20T23:24:57.897Z,62.79
2023-01-20T23:27:59.432Z,62.82
2023-01-20T23:31:08.800Z,62.66
2023-01-20T23:34:10.282Z,62.61
2023-01-20T23:37:11.739Z,62.68
2023-01-20T23:40:13.237Z,62.75
2023-01-20T23:43:15.125Z,62.70
2023-01-20T23:46:16.706Z,62.63
2023-01-20T23:49:18.171Z,62.75
2023-01-20T23:52:21.507Z,62.72
2023-01-20T23:55:22.993Z,62.77
2023-01-20T23:58:24.507Z,62.77
